Avalon — PBSF — position and weather

sailwx.info

Track history (hours):
 
Tides and Currents Weather Stations Pressure Air Temp Water Temp Dewpoint Dewpoint Depression Visibility Wind Speed Wind Dir Waves Ship Positions

Avalon

Last reported at 2016-May-03 12:33 UTC. Time now 2016-May-04 01:54 UTC.
Position N 58°41' W 004°13'.

Length 89 m; draft 5.6 m.

Type: Cargo ship. MMSI: 246578000.

Date/timePositionNaut miles runAvg speedWind from/ knotsBaromVisibWave heightAir tempDewpointWater temp
2016-May-03 12:33N 58°41' W 004°13'8 8.1
2016-May-03 11:33N 58°42' W 003°57'8 8.2
2016-May-03 10:33N 58°42' W 003°41'9 8.6
2016-May-03 09:33N 58°43' W 003°25'9 8.7
2016-May-03 08:33N 58°43' W 003°08'7 6.7
2016-May-03 07:33N 58°40' W 002°57'9 8.6
2016-May-03 06:33N 58°37' W 002°41'284 8.0
2016-May-01 19:06N 57°38' E 006°04'5 8.6
2016-May-01 18:33N 57°37' E 006°13'9 8.9
2016-May-01 17:32N 57°35' E 006°30'9 9.1
2016-May-01 16:32N 57°35' E 006°47'113 9.3
2016-May-01 04:28N 57°46' E 010°17'8 8.5
2016-May-01 03:33N 57°48' E 010°31'8 8.3
2016-May-01 02:33N 57°48' E 010°46'9 9.2
2016-May-01 01:33N 57°42' E 010°59'9 9.2
2016-May-01 00:33N 57°36' E 011°12'10 9.6
2016-Apr-30 23:33N 57°30' E 011°26'1110.6
2016-Apr-30 22:33N 57°20' E 011°32'1110.8
2016-Apr-30 21:33N 57°10' E 011°39'1110.7
2016-Apr-30 20:33N 56°60' E 011°46'1010.4
2016-Apr-30 19:33N 56°50' E 011°52'1010.4
2016-Apr-30 18:33N 56°40' E 011°58'1010.4
2016-Apr-30 17:33N 56°30' E 012°03'1010.4
2016-Apr-30 16:33N 56°21' E 012°13'1110.8
2016-Apr-30 15:33N 56°13' E 012°25'1212.2
2016-Apr-30 14:34N 56°03' E 012°39'1110.7
2016-Apr-30 13:33N 55°53' E 012°44'1110.6
2016-Apr-30 12:33N 55°43' E 012°41'1110.9
2016-Apr-30 11:33N 55°32' E 012°43'1010.1
2016-Apr-30 10:33N 55°22' E 012°41'9 8.6
2016-Apr-30 09:33N 55°16' E 012°52'9 8.9
2016-Apr-30 08:33N 55°16' E 013°08'10 9.8
2016-Apr-30 07:33N 55°15' E 013°25'10 9.8
2016-Apr-30 06:33N 55°15' E 013°42'1010.0
2016-Apr-30 05:33N 55°14' E 014°00'10 9.8
2016-Apr-30 04:33N 55°14' E 014°17'10 9.8
2016-Apr-30 03:33N 55°21' E 014°29'9 9.1
2016-Apr-30 02:33N 55°26' E 014°43'10 9.6
2016-Apr-30 01:33N 55°27' E 014°59'10 9.7
2016-Apr-30 00:33N 55°28' E 015°17'10 9.8
2016-Apr-29 23:33N 55°29' E 015°34'10 9.6
2016-Apr-29 22:33N 55°30' E 015°51'10 9.8
2016-Apr-29 21:33N 55°30' E 016°08'10 9.8
2016-Apr-29 20:33N 55°31' E 016°25'10 9.8
2016-Apr-29 19:33N 55°32' E 016°42'10 9.8
2016-Apr-29 18:33N 55°33' E 016°60'10 9.8
2016-Apr-29 17:33N 55°33' E 017°17'10 9.8
2016-Apr-29 16:33N 55°34' E 017°34'40 9.9
2016-Apr-29 12:31N 55°38' E 018°44'  
2016-Apr-26 06:15N 59°24' E 023°24'9 9.9
2016-Apr-26 05:19N 59°28' E 023°40'9 9.9
2016-Apr-26 04:26N 59°33' E 023°56'105 9.7
2016-Apr-25 17:31N 59°34' E 027°24'1010.1
2016-Apr-25 16:33N 59°29' E 027°40'4 0.4
2016-Apr-25 04:28N 59°25' E 027°44'0 0.0
2016-Apr-25 02:13N 59°25' E 027°44'0 0.0
2016-Apr-25 01:16N 59°25' E 027°44'0 0.0
2016-Apr-25 00:31N 59°25' E 027°44'0 0.0
2016-Apr-24 23:13N 59°25' E 027°44'0 0.0
2016-Apr-24 22:31N 59°25' E 027°44'0 0.0
2016-Apr-24 21:31N 59°25' E 027°44'0 0.0
2016-Apr-24 10:05N 59°25' E 027°45'4 7.8
2016-Apr-24 09:33N 59°28' E 027°39'0 0.4
2016-Apr-24 08:32N 59°29' E 027°39'0 0.0
2016-Apr-24 07:32N 59°29' E 027°39'0 0.0
2016-Apr-24 06:32N 59°29' E 027°39'0 0.0
2016-Apr-24 05:32N 59°29' E 027°39'6 5.9
2016-Apr-24 04:34N 59°31' E 027°29'8 8.2
2016-Apr-24 03:34N 59°36' E 027°15'18 8.2
2016-Apr-24 01:22N 59°43' E 026°42'10 7.9
2016-Apr-24 00:08N 59°44' E 026°23'67 8.5
2016-Apr-23 16:13N 59°40' E 024°11'6 9.1
2016-Apr-23 15:34N 59°37' E 024°00'9 9.0
2016-Apr-23 14:33N 59°33' E 023°45'11 9.1
2016-Apr-23 13:21N 59°27' E 023°26'  
Track history (hours):
 
Tides and Currents Weather Stations Pressure Air Temp Water Temp Dewpoint Dewpoint Depression Visibility Wind Speed Wind Dir Waves Ship Positions

Avalon

Last reported at 2016-May-03 12:33 UTC. Time now 2016-May-04 01:54 UTC.
Position N 58°41' W 004°13'.

Length 89 m; draft 5.6 m.

Type: Cargo ship. MMSI: 246578000.

Date/timePositionNaut miles runAvg speedWind from/ knotsBaromVisibWave heightAir tempDewpointWater temp
2016-May-03 12:33N 58°41' W 004°13'8 8.1
2016-May-03 11:33N 58°42' W 003°57'8 8.2
2016-May-03 10:33N 58°42' W 003°41'9 8.6
2016-May-03 09:33N 58°43' W 003°25'9 8.7
2016-May-03 08:33N 58°43' W 003°08'7 6.7
2016-May-03 07:33N 58°40' W 002°57'9 8.6
2016-May-03 06:33N 58°37' W 002°41'284 8.0
2016-May-01 19:06N 57°38' E 006°04'5 8.6
2016-May-01 18:33N 57°37' E 006°13'9 8.9
2016-May-01 17:32N 57°35' E 006°30'9 9.1
2016-May-01 16:32N 57°35' E 006°47'113 9.3
2016-May-01 04:28N 57°46' E 010°17'8 8.5
2016-May-01 03:33N 57°48' E 010°31'8 8.3
2016-May-01 02:33N 57°48' E 010°46'9 9.2
2016-May-01 01:33N 57°42' E 010°59'9 9.2
2016-May-01 00:33N 57°36' E 011°12'10 9.6
2016-Apr-30 23:33N 57°30' E 011°26'1110.6
2016-Apr-30 22:33N 57°20' E 011°32'1110.8
2016-Apr-30 21:33N 57°10' E 011°39'1110.7
2016-Apr-30 20:33N 56°60' E 011°46'1010.4
2016-Apr-30 19:33N 56°50' E 011°52'1010.4
2016-Apr-30 18:33N 56°40' E 011°58'1010.4
2016-Apr-30 17:33N 56°30' E 012°03'1010.4
2016-Apr-30 16:33N 56°21' E 012°13'1110.8
2016-Apr-30 15:33N 56°13' E 012°25'1212.2
2016-Apr-30 14:34N 56°03' E 012°39'1110.7
2016-Apr-30 13:33N 55°53' E 012°44'1110.6
2016-Apr-30 12:33N 55°43' E 012°41'1110.9
2016-Apr-30 11:33N 55°32' E 012°43'1010.1
2016-Apr-30 10:33N 55°22' E 012°41'9 8.6
2016-Apr-30 09:33N 55°16' E 012°52'9 8.9
2016-Apr-30 08:33N 55°16' E 013°08'10 9.8
2016-Apr-30 07:33N 55°15' E 013°25'10 9.8
2016-Apr-30 06:33N 55°15' E 013°42'1010.0
2016-Apr-30 05:33N 55°14' E 014°00'10 9.8
2016-Apr-30 04:33N 55°14' E 014°17'10 9.8
2016-Apr-30 03:33N 55°21' E 014°29'9 9.1
2016-Apr-30 02:33N 55°26' E 014°43'10 9.6
2016-Apr-30 01:33N 55°27' E 014°59'10 9.7
2016-Apr-30 00:33N 55°28' E 015°17'10 9.8
2016-Apr-29 23:33N 55°29' E 015°34'10 9.6
2016-Apr-29 22:33N 55°30' E 015°51'10 9.8
2016-Apr-29 21:33N 55°30' E 016°08'10 9.8
2016-Apr-29 20:33N 55°31' E 016°25'10 9.8
2016-Apr-29 19:33N 55°32' E 016°42'10 9.8
2016-Apr-29 18:33N 55°33' E 016°60'10 9.8
2016-Apr-29 17:33N 55°33' E 017°17'10 9.8
2016-Apr-29 16:33N 55°34' E 017°34'40 9.9
2016-Apr-29 12:31N 55°38' E 018°44'  
2016-Apr-26 06:15N 59°24' E 023°24'9 9.9
2016-Apr-26 05:19N 59°28' E 023°40'9 9.9
2016-Apr-26 04:26N 59°33' E 023°56'105 9.7
2016-Apr-25 17:31N 59°34' E 027°24'1010.1
2016-Apr-25 16:33N 59°29' E 027°40'4 0.4
2016-Apr-25 04:28N 59°25' E 027°44'0 0.0
2016-Apr-25 02:13N 59°25' E 027°44'0 0.0
2016-Apr-25 01:16N 59°25' E 027°44'0 0.0
2016-Apr-25 00:31N 59°25' E 027°44'0 0.0
2016-Apr-24 23:13N 59°25' E 027°44'0 0.0
2016-Apr-24 22:31N 59°25' E 027°44'0 0.0
2016-Apr-24 21:31N 59°25' E 027°44'0 0.0
2016-Apr-24 10:05N 59°25' E 027°45'4 7.8
2016-Apr-24 09:33N 59°28' E 027°39'0 0.4
2016-Apr-24 08:32N 59°29' E 027°39'0 0.0
2016-Apr-24 07:32N 59°29' E 027°39'0 0.0
2016-Apr-24 06:32N 59°29' E 027°39'0 0.0
2016-Apr-24 05:32N 59°29' E 027°39'6 5.9
2016-Apr-24 04:34N 59°31' E 027°29'8 8.2
2016-Apr-24 03:34N 59°36' E 027°15'18 8.2
2016-Apr-24 01:22N 59°43' E 026°42'10 7.9
2016-Apr-24 00:08N 59°44' E 026°23'67 8.5
2016-Apr-23 16:13N 59°40' E 024°11'6 9.1
2016-Apr-23 15:34N 59°37' E 024°00'9 9.0
2016-Apr-23 14:33N 59°33' E 023°45'11 9.1
2016-Apr-23 13:21N 59°27' E 023°26'  

Dump ship's entire track history